sensor_id;sensor_type;location;lat;lon;timestamp;pressure;altitude;pressure_sealevel;temperature;humidity
47811;BME280;33575;52.600;7.318;2024-02-21T00:01:14;101835.96;;;8.38;98.12
47811;BME280;33575;52.600;7.318;2024-02-21T00:03:39;101832.14;;;8.34;98.42
47811;BME280;33575;52.600;7.318;2024-02-21T00:06:10;101832.56;;;8.32;98.79
47811;BME280;33575;52.600;7.318;2024-02-21T00:08:40;101829.05;;;8.27;98.40
47811;BME280;33575;52.600;7.318;2024-02-21T00:11:11;101828.43;;;8.30;98.35
47811;BME280;33575;52.600;7.318;2024-02-21T00:13:40;101824.84;;;8.30;98.51
47811;BME280;33575;52.600;7.318;2024-02-21T00:16:11;101827.53;;;8.20;99.36
47811;BME280;33575;52.600;7.318;2024-02-21T00:18:42;101824.83;;;8.25;99.04
47811;BME280;33575;52.600;7.318;2024-02-21T00:21:12;101819.28;;;8.25;99.08
47811;BME280;33575;52.600;7.318;2024-02-21T00:23:42;101813.01;;;8.24;98.94
47811;BME280;33575;52.600;7.318;2024-02-21T00:26:13;101806.86;;;8.28;97.82
47811;BME280;33575;52.600;7.318;2024-02-21T00:28:43;101807.99;;;8.27;98.43
47811;BME280;33575;52.600;7.318;2024-02-21T00:31:13;101814.73;;;8.38;97.71
47811;BME280;33575;52.600;7.318;2024-02-21T00:33:43;101807.29;;;8.35;97.89
47811;BME280;33575;52.600;7.318;2024-02-21T00:36:14;101803.70;;;8.36;98.42
47811;BME280;33575;52.600;7.318;2024-02-21T00:38:45;101803.04;;;8.34;97.93
47811;BME280;33575;52.600;7.318;2024-02-21T00:41:15;101804.64;;;8.37;97.65
47811;BME280;33575;52.600;7.318;2024-02-21T00:43:46;101799.63;;;8.40;97.66
47811;BME280;33575;52.600;7.318;2024-02-21T00:46:16;101796.75;;;8.42;97.59
47811;BME280;33575;52.600;7.318;2024-02-21T00:48:47;101802.15;;;8.42;97.81
47811;BME280;33575;52.600;7.318;2024-02-21T00:51:17;101795.27;;;8.34;98.25
47811;BME280;33575;52.600;7.318;2024-02-21T00:53:47;101796.64;;;8.38;97.88
47811;BME280;33575;52.600;7.318;2024-02-21T00:56:18;101798.18;;;8.41;97.71
47811;BME280;33575;52.600;7.318;2024-02-21T00:58:48;101792.14;;;8.33;98.48
47811;BME280;33575;52.600;7.318;2024-02-21T01:01:22;101787.63;;;8.22;98.53
47811;BME280;33575;52.600;7.318;2024-02-21T01:03:49;101790.87;;;8.24;98.51
47811;BME280;33575;52.600;7.318;2024-02-21T01:06:18;101789.46;;;8.22;99.15
47811;BME280;33575;52.600;7.318;2024-02-21T01:08:49;101781.00;;;8.22;98.91
47811;BME280;33575;52.600;7.318;2024-02-21T01:11:20;101774.37;;;8.24;98.94
47811;BME280;33575;52.600;7.318;2024-02-21T01:13:50;101773.41;;;8.26;98.73
47811;BME280;33575;52.600;7.318;2024-02-21T01:16:20;101767.46;;;8.31;98.11
47811;BME280;33575;52.600;7.318;2024-02-21T01:18:51;101758.23;;;8.29;98.88
47811;BME280;33575;52.600;7.318;2024-02-21T01:21:21;101746.43;;;8.24;98.76
47811;BME280;33575;52.600;7.318;2024-02-21T01:23:52;101755.69;;;8.29;97.86
47811;BME280;33575;52.600;7.318;2024-02-21T01:26:22;101755.70;;;8.33;97.87
47811;BME280;33575;52.600;7.318;2024-02-21T01:28:53;101752.29;;;8.38;97.54
47811;BME280;33575;52.600;7.318;2024-02-21T01:31:23;101745.07;;;8.39;97.76
47811;BME280;33575;52.600;7.318;2024-02-21T01:33:53;101736.61;;;8.43;97.51
47811;BME280;33575;52.600;7.318;2024-02-21T01:36:24;101718.15;;;8.41;97.93
47811;BME280;33575;52.600;7.318;2024-02-21T01:38:55;101704.09;;;8.42;98.11
47811;BME280;33575;52.600;7.318;2024-02-21T01:41:25;101688.29;;;8.30;98.99
47811;BME280;33575;52.600;7.318;2024-02-21T01:43:56;101680.78;;;8.25;99.62
47811;BME280;33575;52.600;7.318;2024-02-21T01:46:26;101676.09;;;8.08;100.00
47811;BME280;33575;52.600;7.318;2024-02-21T01:48:58;101678.09;;;8.21;98.97
47811;BME280;33575;52.600;7.318;2024-02-21T01:51:28;101683.73;;;8.17;99.44
47811;BME280;33575;52.600;7.318;2024-02-21T01:53:59;101696.65;;;8.24;98.73
47811;BME280;33575;52.600;7.318;2024-02-21T01:56:28;101704.75;;;8.32;98.54
47811;BME280;33575;52.600;7.318;2024-02-21T01:58:59;101680.42;;;8.29;98.74
47811;BME280;33575;52.600;7.318;2024-02-21T02:01:30;101683.17;;;8.25;99.23
47811;BME280;33575;52.600;7.318;2024-02-21T02:04:00;101677.10;;;8.31;99.15
47811;BME280;33575;52.600;7.318;2024-02-21T02:06:31;101677.56;;;8.30;98.78
47811;BME280;33575;52.600;7.318;2024-02-21T02:09:01;101682.85;;;8.22;99.92
47811;BME280;33575;52.600;7.318;2024-02-21T02:11:32;101682.70;;;8.31;98.16
47811;BME280;33575;52.600;7.318;2024-02-21T02:14:02;101680.79;;;8.25;99.03
47811;BME280;33575;52.600;7.318;2024-02-21T02:16:32;101678.66;;;8.33;98.44
47811;BME280;33575;52.600;7.318;2024-02-21T02:19:03;101668.13;;;8.27;98.70
47811;BME280;33575;52.600;7.318;2024-02-21T02:21:38;101661.27;;;8.28;98.74
47811;BME280;33575;52.600;7.318;2024-02-21T02:24:04;101659.31;;;8.26;99.07
47811;BME280;33575;52.600;7.318;2024-02-21T02:26:34;101655.61;;;8.30;98.82
47811;BME280;33575;52.600;7.318;2024-02-21T02:29:05;101656.81;;;8.22;99.48
47811;BME280;33575;52.600;7.318;2024-02-21T02:31:36;101662.17;;;8.24;98.95
47811;BME280;33575;52.600;7.318;2024-02-21T02:34:06;101663.14;;;8.25;100.00
47811;BME280;33575;52.600;7.318;2024-02-21T02:36:36;101663.42;;;8.30;100.00
47811;BME280;33575;52.600;7.318;2024-02-21T02:39:06;101662.86;;;8.34;100.00
47811;BME280;33575;52.600;7.318;2024-02-21T02:41:37;101662.74;;;8.44;99.58
47811;BME280;33575;52.600;7.318;2024-02-21T02:44:08;101657.71;;;8.47;99.04
47811;BME280;33575;52.600;7.318;2024-02-21T02:46:40;101660.00;;;8.44;98.80
47811;BME280;33575;52.600;7.318;2024-02-21T02:49:09;101655.40;;;8.42;98.84
47811;BME280;33575;52.600;7.318;2024-02-21T02:51:41;101660.33;;;8.41;99.06
47811;BME280;33575;52.600;7.318;2024-02-21T02:54:09;101652.29;;;8.38;98.55
47811;BME280;33575;52.600;7.318;2024-02-21T02:56:39;101656.56;;;8.37;99.09
47811;BME280;33575;52.600;7.318;2024-02-21T02:59:10;101653.07;;;8.45;98.18
47811;BME280;33575;52.600;7.318;2024-02-21T03:01:40;101664.65;;;8.35;99.30
47811;BME280;33575;52.600;7.318;2024-02-21T03:04:11;101658.86;;;8.22;100.00
47811;BME280;33575;52.600;7.318;2024-02-21T03:06:41;101663.30;;;8.32;99.22
47811;BME280;33575;52.600;7.318;2024-02-21T03:09:11;101664.85;;;8.33;99.51
47811;BME280;33575;52.600;7.318;2024-02-21T03:11:42;101664.12;;;8.27;100.00
47811;BME280;33575;52.600;7.318;2024-02-21T03:14:12;101667.11;;;8.30;100.00
47811;BME280;33575;52.600;7.318;2024-02-21T03:16:42;101658.82;;;8.15;100.00
47811;BME280;33575;52.600;7.318;2024-02-21T03:19:13;101665.97;;;8.19;100.00
47811;BME280;33575;52.600;7.318;2024-02-21T03:21:44;101657.43;;;8.23;100.00
47811;BME280;33575;52.600;7.318;2024-02-21T03:24:14;101664.02;;;8.29;100.00
47811;BME280;33575;52.600;7.318;2024-02-21T03:26:45;101659.90;;;8.30;100.00
47811;BME280;33575;52.600;7.318;2024-02-21T03:29:16;101657.91;;;8.24;100.00
47811;BME280;33575;52.600;7.318;2024-02-21T03:31:46;101656.89;;;8.28;100.00
47811;BME280;33575;52.600;7.318;2024-02-21T03:34:17;101652.97;;;8.37;100.00
47811;BME280;33575;52.600;7.318;2024-02-21T03:36:47;101642.45;;;8.33;100.00
47811;BME280;33575;52.600;7.318;2024-02-21T03:39:18;101633.76;;;8.34;100.00
47811;BME280;33575;52.600;7.318;2024-02-21T03:41:49;101629.74;;;8.39;100.00
47811;BME280;33575;52.600;7.318;2024-02-21T03:44:19;101629.72;;;8.42;100.00
47811;BME280;33575;52.600;7.318;2024-02-21T03:46:50;101630.16;;;8.40;100.00
47811;BME280;33575;52.600;7.318;2024-02-21T03:49:21;101634.26;;;8.29;100.00
47811;BME280;33575;52.600;7.318;2024-02-21T03:51:51;101633.87;;;8.33;100.00
47811;BME280;33575;52.600;7.318;2024-02-21T03:54:21;101630.24;;;8.31;100.00
47811;BME280;33575;52.600;7.318;2024-02-21T03:56:51;101629.53;;;8.26;100.00
47811;BME280;33575;52.600;7.318;2024-02-21T03:59:22;101629.36;;;8.28;100.00
47811;BME280;33575;52.600;7.318;2024-02-21T04:01:53;101626.83;;;8.31;100.00
47811;BME280;33575;52.600;7.318;2024-02-21T04:04:23;101630.43;;;8.30;100.00
47811;BME280;33575;52.600;7.318;2024-02-21T04:06:54;101627.39;;;8.31;100.00
47811;BME280;33575;52.600;7.318;2024-02-21T04:09:24;101631.99;;;8.33;100.00
47811;BME280;33575;52.600;7.318;2024-02-21T04:11:55;101631.61;;;8.32;100.00
47811;BME280;33575;52.600;7.318;2024-02-21T04:14:25;101631.27;;;8.21;100.00
47811;BME280;33575;52.600;7.318;2024-02-21T04:16:56;101626.39;;;8.21;100.00
47811;BME280;33575;52.600;7.318;2024-02-21T04:19:26;101620.52;;;8.13;100.00
47811;BME280;33575;52.600;7.318;2024-02-21T04:21:56;101615.06;;;8.17;100.00
47811;BME280;33575;52.600;7.318;2024-02-21T04:24:26;101616.95;;;8.09;100.00
47811;BME280;33575;52.600;7.318;2024-02-21T04:26:57;101613.56;;;8.06;100.00
47811;BME280;33575;52.600;7.318;2024-02-21T04:29:27;101618.29;;;8.13;100.00
47811;BME280;33575;52.600;7.318;2024-02-21T04:31:58;101623.86;;;8.15;100.00
47811;BME280;33575;52.600;7.318;2024-02-21T04:34:28;101615.59;;;8.07;100.00
47811;BME280;33575;52.600;7.318;2024-02-21T04:36:58;101613.47;;;8.11;100.00
47811;BME280;33575;52.600;7.318;2024-02-21T04:39:28;101613.25;;;8.15;100.00
47811;BME280;33575;52.600;7.318;2024-02-21T04:41:59;101605.79;;;8.15;100.00
47811;BME280;33575;52.600;7.318;2024-02-21T04:44:29;101607.25;;;8.06;100.00
47811;BME280;33575;52.600;7.318;2024-02-21T04:46:59;101603.48;;;8.17;100.00
47811;BME280;33575;52.600;7.318;2024-02-21T04:49:29;101599.89;;;8.18;100.00
47811;BME280;33575;52.600;7.318;2024-02-21T04:51:59;101597.92;;;8.13;100.00
47811;BME280;33575;52.600;7.318;2024-02-21T04:54:30;101593.43;;;8.11;100.00
47811;BME280;33575;52.600;7.318;2024-02-21T04:57:01;101587.97;;;8.09;100.00
47811;BME280;33575;52.600;7.318;2024-02-21T04:59:31;101579.54;;;8.07;100.00
47811;BME280;33575;52.600;7.318;2024-02-21T05:02:02;101578.00;;;8.13;100.00
47811;BME280;33575;52.600;7.318;2024-02-21T05:04:33;101572.58;;;8.13;100.00
47811;BME280;33575;52.600;7.318;2024-02-21T05:07:04;101572.53;;;8.13;100.00
47811;BME280;33575;52.600;7.318;2024-02-21T05:09:34;101571.78;;;8.16;100.00
47811;BME280;33575;52.600;7.318;2024-02-21T05:12:05;101569.73;;;8.15;100.00
47811;BME280;33575;52.600;7.318;2024-02-21T05:14:35;101564.34;;;8.14;100.00
47811;BME280;33575;52.600;7.318;2024-02-21T05:17:06;101561.98;;;8.13;100.00
47811;BME280;33575;52.600;7.318;2024-02-21T05:19:36;101560.88;;;8.13;100.00
47811;BME280;33575;52.600;7.318;2024-02-21T05:22:07;101559.45;;;8.20;100.00
47811;BME280;33575;52.600;7.318;2024-02-21T05:24:39;101550.18;;;8.28;100.00
47811;BME280;33575;52.600;7.318;2024-02-21T05:27:08;101548.11;;;8.31;100.00
47811;BME280;33575;52.600;7.318;2024-02-21T05:29:38;101548.33;;;8.36;100.00
47811;BME280;33575;52.600;7.318;2024-02-21T05:32:08;101546.45;;;8.38;100.00
47811;BME280;33575;52.600;7.318;2024-02-21T05:34:39;101547.83;;;8.39;100.00
47811;BME280;33575;52.600;7.318;2024-02-21T05:37:10;101551.42;;;8.34;100.00
47811;BME280;33575;52.600;7.318;2024-02-21T05:39:40;101547.49;;;8.17;100.00
47811;BME280;33575;52.600;7.318;2024-02-21T05:42:11;101547.60;;;8.18;100.00
47811;BME280;33575;52.600;7.318;2024-02-21T05:44:42;101552.70;;;8.23;100.00
47811;BME280;33575;52.600;7.318;2024-02-21T05:47:12;101550.61;;;8.27;100.00
47811;BME280;33575;52.600;7.318;2024-02-21T05:49:42;101546.02;;;8.27;99.98
47811;BME280;33575;52.600;7.318;2024-02-21T05:52:13;101546.68;;;8.23;100.00
47811;BME280;33575;52.600;7.318;2024-02-21T05:54:43;101549.60;;;8.26;100.00
47811;BME280;33575;52.600;7.318;2024-02-21T05:57:14;101548.98;;;8.24;100.00
47811;BME280;33575;52.600;7.318;2024-02-21T05:59:45;101544.97;;;8.14;100.00
47811;BME280;33575;52.600;7.318;2024-02-21T06:02:16;101539.82;;;8.27;100.00
47811;BME280;33575;52.600;7.318;2024-02-21T06:04:46;101532.54;;;8.25;100.00
47811;BME280;33575;52.600;7.318;2024-02-21T06:07:17;101530.39;;;8.27;100.00
47811;BME280;33575;52.600;7.318;2024-02-21T06:09:48;101528.91;;;8.31;100.00
47811;BME280;33575;52.600;7.318;2024-02-21T06:12:18;101525.95;;;8.31;100.00
47811;BME280;33575;52.600;7.318;2024-02-21T06:14:49;101520.99;;;8.33;100.00
47811;BME280;33575;52.600;7.318;2024-02-21T06:17:20;101522.14;;;8.33;100.00
47811;BME280;33575;52.600;7.318;2024-02-21T06:19:50;101523.25;;;8.32;99.82
47811;BME280;33575;52.600;7.318;2024-02-21T06:22:20;101516.56;;;8.28;100.00
47811;BME280;33575;52.600;7.318;2024-02-21T06:24:50;101503.16;;;8.21;100.00
47811;BME280;33575;52.600;7.318;2024-02-21T06:27:21;101503.93;;;8.20;99.97
47811;BME280;33575;52.600;7.318;2024-02-21T06:29:52;101506.52;;;8.22;100.00
47811;BME280;33575;52.600;7.318;2024-02-21T06:32:22;101505.57;;;8.20;100.00
47811;BME280;33575;52.600;7.318;2024-02-21T06:34:52;101503.17;;;8.24;100.00
47811;BME280;33575;52.600;7.318;2024-02-21T06:37:23;101497.21;;;8.18;100.00
47811;BME280;33575;52.600;7.318;2024-02-21T06:39:53;101500.29;;;8.22;100.00
47811;BME280;33575;52.600;7.318;2024-02-21T06:42:24;101495.62;;;8.20;100.00
47811;BME280;33575;52.600;7.318;2024-02-21T06:44:54;101489.81;;;8.23;100.00
47811;BME280;33575;52.600;7.318;2024-02-21T06:47:24;101487.07;;;8.28;100.00
47811;BME280;33575;52.600;7.318;2024-02-21T06:49:54;101490.99;;;8.31;99.21
47811;BME280;33575;52.600;7.318;2024-02-21T06:52:24;101494.88;;;8.28;99.77
47811;BME280;33575;52.600;7.318;2024-02-21T06:54:55;101499.98;;;8.28;99.77
47811;BME280;33575;52.600;7.318;2024-02-21T06:57:25;101502.43;;;8.25;99.77
47811;BME280;33575;52.600;7.318;2024-02-21T06:59:56;101502.39;;;8.24;100.00
47811;BME280;33575;52.600;7.318;2024-02-21T07:02:27;101506.13;;;8.26;99.99
47811;BME280;33575;52.600;7.318;2024-02-21T07:04:57;101506.03;;;8.19;100.00
47811;BME280;33575;52.600;7.318;2024-02-21T07:07:28;101510.91;;;8.23;100.00
47811;BME280;33575;52.600;7.318;2024-02-21T07:09:59;101509.30;;;8.21;99.92
47811;BME280;33575;52.600;7.318;2024-02-21T07:12:29;101512.79;;;8.18;100.00
47811;BME280;33575;52.600;7.318;2024-02-21T07:15:00;101510.97;;;8.24;100.00
47811;BME280;33575;52.600;7.318;2024-02-21T07:17:31;101510.76;;;8.19;100.00
47811;BME280;33575;52.600;7.318;2024-02-21T07:20:02;101510.09;;;8.29;99.92
47811;BME280;33575;52.600;7.318;2024-02-21T07:22:32;101508.96;;;8.33;99.34
47811;BME280;33575;52.600;7.318;2024-02-21T07:25:08;101504.85;;;8.33;99.56
47811;BME280;33575;52.600;7.318;2024-02-21T07:27:33;101506.90;;;8.30;99.54
47811;BME280;33575;52.600;7.318;2024-02-21T07:30:05;101513.03;;;8.32;99.19
47811;BME280;33575;52.600;7.318;2024-02-21T07:32:34;101509.20;;;8.28;99.98
47811;BME280;33575;52.600;7.318;2024-02-21T07:35:05;101505.80;;;8.28;100.00
47811;BME280;33575;52.600;7.318;2024-02-21T07:37:35;101499.97;;;8.36;99.53
47811;BME280;33575;52.600;7.318;2024-02-21T07:40:06;101498.60;;;8.37;99.58
47811;BME280;33575;52.600;7.318;2024-02-21T07:42:35;101490.62;;;8.36;99.45
47811;BME280;33575;52.600;7.318;2024-02-21T07:45:07;101489.99;;;8.36;99.34
47811;BME280;33575;52.600;7.318;2024-02-21T07:47:36;101490.46;;;8.37;99.55
47811;BME280;33575;52.600;7.318;2024-02-21T07:50:08;101487.25;;;8.41;98.98
47811;BME280;33575;52.600;7.318;2024-02-21T07:52:37;101484.11;;;8.37;99.07
47811;BME280;33575;52.600;7.318;2024-02-21T07:55:08;101477.54;;;8.26;99.38
47811;BME280;33575;52.600;7.318;2024-02-21T07:57:38;101475.07;;;8.31;98.54
47811;BME280;33575;52.600;7.318;2024-02-21T08:00:09;101471.45;;;8.28;99.34
47811;BME280;33575;52.600;7.318;2024-02-21T08:02:39;101474.07;;;8.28;99.11
47811;BME280;33575;52.600;7.318;2024-02-21T08:05:09;101477.33;;;8.29;99.92
47811;BME280;33575;52.600;7.318;2024-02-21T08:07:40;101473.27;;;8.37;99.26
47811;BME280;33575;52.600;7.318;2024-02-21T08:10:11;101469.25;;;8.21;100.00
47811;BME280;33575;52.600;7.318;2024-02-21T08:12:41;101469.66;;;8.36;99.66
47811;BME280;33575;52.600;7.318;2024-02-21T08:15:11;101463.83;;;8.34;100.00
47811;BME280;33575;52.600;7.318;2024-02-21T08:17:42;101457.16;;;8.43;99.94
47811;BME280;33575;52.600;7.318;2024-02-21T08:20:12;101445.49;;;8.42;100.00
47811;BME280;33575;52.600;7.318;2024-02-21T08:22:42;101444.07;;;8.48;99.78
47811;BME280;33575;52.600;7.318;2024-02-21T08:25:12;101442.29;;;8.43;99.51
47811;BME280;33575;52.600;7.318;2024-02-21T08:27:43;101444.62;;;8.35;99.42
47811;BME280;33575;52.600;7.318;2024-02-21T08:30:14;101443.60;;;8.31;99.02
47811;BME280;33575;52.600;7.318;2024-02-21T08:32:44;101447.78;;;8.33;98.95
47811;BME280;33575;52.600;7.318;2024-02-21T08:35:15;101446.79;;;8.29;99.16
47811;BME280;33575;52.600;7.318;2024-02-21T08:37:45;101448.16;;;8.17;99.72
47811;BME280;33575;52.600;7.318;2024-02-21T08:40:15;101445.18;;;8.22;99.22
47811;BME280;33575;52.600;7.318;2024-02-21T08:42:45;101439.19;;;8.19;99.54
47811;BME280;33575;52.600;7.318;2024-02-21T08:45:15;101437.84;;;8.22;99.26
47811;BME280;33575;52.600;7.318;2024-02-21T08:47:46;101432.25;;;8.25;98.88
47811;BME280;33575;52.600;7.318;2024-02-21T08:50:21;101434.10;;;8.32;98.81
47811;BME280;33575;52.600;7.318;2024-02-21T08:52:46;101427.88;;;8.28;99.18
47811;BME280;33575;52.600;7.318;2024-02-21T08:55:16;101434.32;;;8.32;99.80
47811;BME280;33575;52.600;7.318;2024-02-21T08:57:47;101434.49;;;8.40;99.38
47811;BME280;33575;52.600;7.318;2024-02-21T09:00:17;101431.01;;;8.42;99.95
47811;BME280;33575;52.600;7.318;2024-02-21T09:02:48;101428.26;;;8.43;99.81
47811;BME280;33575;52.600;7.318;2024-02-21T09:05:19;101422.35;;;8.50;99.54
47811;BME280;33575;52.600;7.318;2024-02-21T09:07:49;101417.51;;;8.48;99.87
47811;BME280;33575;52.600;7.318;2024-02-21T09:10:19;101412.59;;;8.42;99.67
47811;BME280;33575;52.600;7.318;2024-02-21T09:12:50;101407.94;;;8.46;99.69
47811;BME280;33575;52.600;7.318;2024-02-21T09:15:20;101393.54;;;8.54;99.09
47811;BME280;33575;52.600;7.318;2024-02-21T09:17:51;101388.27;;;8.52;99.87
47811;BME280;33575;52.600;7.318;2024-02-21T09:20:22;101391.48;;;8.49;100.00
47811;BME280;33575;52.600;7.318;2024-02-21T09:22:52;101394.59;;;8.53;99.40
47811;BME280;33575;52.600;7.318;2024-02-21T09:25:23;101390.69;;;8.48;100.00
47811;BME280;33575;52.600;7.318;2024-02-21T09:27:54;101381.61;;;8.64;99.41
47811;BME280;33575;52.600;7.318;2024-02-21T09:30:24;101377.45;;;8.57;99.61
47811;BME280;33575;52.600;7.318;2024-02-21T09:32:54;101377.78;;;8.60;99.79
47811;BME280;33575;52.600;7.318;2024-02-21T09:35:25;101376.04;;;8.69;99.36
47811;BME280;33575;52.600;7.318;2024-02-21T09:37:55;101376.41;;;8.84;99.00
47811;BME280;33575;52.600;7.318;2024-02-21T09:40:27;101375.74;;;8.86;99.20
47811;BME280;33575;52.600;7.318;2024-02-21T09:43:02;101371.14;;;8.90;98.14
47811;BME280;33575;52.600;7.318;2024-02-21T09:45:27;101371.28;;;8.94;98.21
47811;BME280;33575;52.600;7.318;2024-02-21T09:48:14;101368.63;;;8.96;97.50
47811;BME280;33575;52.600;7.318;2024-02-21T09:50:29;101368.40;;;8.91;97.78
47811;BME280;33575;52.600;7.318;2024-02-21T09:52:59;101372.21;;;8.93;97.62
47811;BME280;33575;52.600;7.318;2024-02-21T09:55:29;101374.67;;;8.91;97.70
47811;BME280;33575;52.600;7.318;2024-02-21T09:57:59;101373.28;;;9.01;100.00
47811;BME280;33575;52.600;7.318;2024-02-21T10:00:29;101372.40;;;9.01;98.51
47811;BME280;33575;52.600;7.318;2024-02-21T10:03:00;101368.92;;;9.00;97.10
47811;BME280;33575;52.600;7.318;2024-02-21T10:05:30;101368.25;;;8.99;97.13
47811;BME280;33575;52.600;7.318;2024-02-21T10:08:00;101364.23;;;8.98;97.74
47811;BME280;33575;52.600;7.318;2024-02-21T10:13:02;101353.31;;;9.07;97.34
47811;BME280;33575;52.600;7.318;2024-02-21T10:15:32;101343.46;;;9.09;96.63
47811;BME280;33575;52.600;7.318;2024-02-21T10:18:04;101342.51;;;9.05;97.19
47811;BME280;33575;52.600;7.318;2024-02-21T10:20:33;101344.25;;;9.06;97.47
47811;BME280;33575;52.600;7.318;2024-02-21T10:23:05;101338.55;;;9.15;96.55
47811;BME280;33575;52.600;7.318;2024-02-21T10:25:35;101326.16;;;9.11;96.39
47811;BME280;33575;52.600;7.318;2024-02-21T10:28:05;101320.29;;;9.17;96.98
47811;BME280;33575;52.600;7.318;2024-02-21T10:30:35;101312.42;;;9.04;97.11
47811;BME280;33575;52.600;7.318;2024-02-21T10:33:07;101308.88;;;9.13;96.66
47811;BME280;33575;52.600;7.318;2024-02-21T10:35:37;101310.48;;;9.02;96.66
47811;BME280;33575;52.600;7.318;2024-02-21T10:38:08;101301.88;;;9.12;96.33
47811;BME280;33575;52.600;7.318;2024-02-21T10:40:38;101300.43;;;9.23;96.53
47811;BME280;33575;52.600;7.318;2024-02-21T10:43:12;101297.02;;;9.34;96.97
47811;BME280;33575;52.600;7.318;2024-02-21T10:45:39;101292.35;;;9.37;97.18
47811;BME280;33575;52.600;7.318;2024-02-21T10:48:11;101290.17;;;9.54;96.61
47811;BME280;33575;52.600;7.318;2024-02-21T10:50:52;101287.06;;;9.56;96.07
47811;BME280;33575;52.600;7.318;2024-02-21T10:53:17;101279.25;;;9.48;95.98
47811;BME280;33575;52.600;7.318;2024-02-21T10:55:47;101269.64;;;9.44;96.37
47811;BME280;33575;52.600;7.318;2024-02-21T10:58:11;101262.93;;;9.36;96.16
47811;BME280;33575;52.600;7.318;2024-02-21T11:00:42;101252.67;;;9.34;95.86
47811;BME280;33575;52.600;7.318;2024-02-21T11:03:12;101244.75;;;9.32;96.79
47811;BME280;33575;52.600;7.318;2024-02-21T11:05:42;101243.29;;;9.35;96.44
47811;BME280;33575;52.600;7.318;2024-02-21T11:08:13;101242.70;;;9.44;96.48
47811;BME280;33575;52.600;7.318;2024-02-21T11:10:46;101234.80;;;9.49;96.17
47811;BME280;33575;52.600;7.318;2024-02-21T11:13:13;101229.10;;;9.56;96.11
47811;BME280;33575;52.600;7.318;2024-02-21T11:15:44;101226.38;;;9.57;95.86
47811;BME280;33575;52.600;7.318;2024-02-21T11:18:23;101221.80;;;9.42;95.08
47811;BME280;33575;52.600;7.318;2024-02-21T11:20:50;101225.59;;;9.52;96.00
47811;BME280;33575;52.600;7.318;2024-02-21T11:23:24;101222.56;;;9.53;95.52
47811;BME280;33575;52.600;7.318;2024-02-21T11:25:47;101218.58;;;9.46;95.21
47811;BME280;33575;52.600;7.318;2024-02-21T11:28:25;101213.15;;;9.41;94.94
47811;BME280;33575;52.600;7.318;2024-02-21T11:30:47;101210.64;;;9.30;95.08
47811;BME280;33575;52.600;7.318;2024-02-21T11:33:18;101209.87;;;9.40;94.79
47811;BME280;33575;52.600;7.318;2024-02-21T11:35:48;101207.97;;;9.43;95.43
47811;BME280;33575;52.600;7.318;2024-02-21T11:38:19;101199.29;;;9.38;94.90
47811;BME280;33575;52.600;7.318;2024-02-21T11:40:50;101191.79;;;9.35;94.78
47811;BME280;33575;52.600;7.318;2024-02-21T11:43:20;101199.97;;;9.35;94.71
47811;BME280;33575;52.600;7.318;2024-02-21T11:45:50;101188.21;;;9.32;95.25
47811;BME280;33575;52.600;7.318;2024-02-21T11:48:21;101173.94;;;9.23;94.57
47811;BME280;33575;52.600;7.318;2024-02-21T11:50:53;101165.62;;;9.26;94.95
47811;BME280;33575;52.600;7.318;2024-02-21T11:53:22;101157.88;;;9.27;94.99
47811;BME280;33575;52.600;7.318;2024-02-21T11:55:53;101144.44;;;9.08;94.95
47811;BME280;33575;52.600;7.318;2024-02-21T11:58:23;101143.20;;;9.13;95.20
47811;BME280;33575;52.600;7.318;2024-02-21T12:00:53;101132.08;;;9.11;95.24
47811;BME280;33575;52.600;7.318;2024-02-21T12:03:24;101120.32;;;9.09;94.71
47811;BME280;33575;52.600;7.318;2024-02-21T12:05:55;101115.37;;;9.19;94.05
47811;BME280;33575;52.600;7.318;2024-02-21T12:08:25;101114.79;;;9.07;94.84
47811;BME280;33575;52.600;7.318;2024-02-21T12:10:55;101107.57;;;8.93;95.11
47811;BME280;33575;52.600;7.318;2024-02-21T12:13:26;101109.99;;;8.94;94.81
47811;BME280;33575;52.600;7.318;2024-02-21T12:15:56;101105.88;;;8.83;95.81
47811;BME280;33575;52.600;7.318;2024-02-21T12:18:27;101094.78;;;8.85;94.96
47811;BME280;33575;52.600;7.318;2024-02-21T12:20:58;101077.50;;;8.86;96.14
47811;BME280;33575;52.600;7.318;2024-02-21T12:23:28;101070.40;;;8.96;95.65
47811;BME280;33575;52.600;7.318;2024-02-21T12:25:59;101055.22;;;8.93;95.30
47811;BME280;33575;52.600;7.318;2024-02-21T12:28:29;101051.14;;;9.02;94.81
47811;BME280;33575;52.600;7.318;2024-02-21T12:30:59;101038.65;;;8.89;94.50
47811;BME280;33575;52.600;7.318;2024-02-21T12:33:31;101038.12;;;9.03;94.46
47811;BME280;33575;52.600;7.318;2024-02-21T12:36:01;101033.98;;;9.01;94.31
47811;BME280;33575;52.600;7.318;2024-02-21T12:38:31;101014.57;;;9.01;94.89
47811;BME280;33575;52.600;7.318;2024-02-21T12:41:02;101001.65;;;9.00;94.71
47811;BME280;33575;52.600;7.318;2024-02-21T12:43:32;100987.38;;;9.05;94.68
47811;BME280;33575;52.600;7.318;2024-02-21T12:46:03;100981.75;;;8.92;94.89
47811;BME280;33575;52.600;7.318;2024-02-21T12:48:33;100994.31;;;8.88;95.56
47811;BME280;33575;52.600;7.318;2024-02-21T12:51:04;100988.53;;;8.85;95.29
47811;BME280;33575;52.600;7.318;2024-02-21T12:53:35;100989.36;;;8.83;95.70
47811;BME280;33575;52.600;7.318;2024-02-21T12:56:05;100970.81;;;8.88;95.14
47811;BME280;33575;52.600;7.318;2024-02-21T12:58:34;100964.92;;;8.96;95.38
47811;BME280;33575;52.600;7.318;2024-02-21T13:01:05;100955.13;;;8.96;95.02
47811;BME280;33575;52.600;7.318;2024-02-21T13:03:36;100989.56;;;8.98;95.17
47811;BME280;33575;52.600;7.318;2024-02-21T13:06:06;100998.00;;;9.04;95.46
47811;BME280;33575;52.600;7.318;2024-02-21T13:08:36;100982.61;;;9.09;95.33
47811;BME280;33575;52.600;7.318;2024-02-21T13:11:07;100986.19;;;9.23;95.07
47811;BME280;33575;52.600;7.318;2024-02-21T13:13:38;100978.14;;;9.24;94.54
47811;BME280;33575;52.600;7.318;2024-02-21T13:16:08;100984.27;;;9.07;94.82